Time;durP1;ratioP1;P1;durP2;ratioP2;P2;SDS_P1;SDS_P2;PMS_P1;PMS_P2;Temp;Humidity;BMP_temperature;BMP_pressure;BME280_temperature;BME280_humidity;BME280_pressure;Samples;Min_cycle;Max_cycle;Signal;HPM_P1;HPM_P2
2023/10/12 00:01:25;;;;;;;12.88;4.03;;;22.70;45.70;;;;;;5042388;28;20072;-46
2023/10/12 00:03:58;;;;;;;11.70;4.18;;;22.70;45.60;;;;;;5042012;28;20053;-47
2023/10/12 00:06:36;;;;;;;14.82;4.35;;;22.70;45.50;;;;;;5042093;28;20090;-48
2023/10/12 00:09:16;;;;;;;11.30;4.30;;;22.70;45.50;;;;;;5042464;28;20493;-46
2023/10/12 00:11:46;;;;;;;11.70;3.70;;;22.60;45.20;;;;;;5042052;28;20067;-46
2023/10/12 00:14:15;;;;;;;17.30;3.72;;;22.60;45.30;;;;;;5041986;28;20992;-44
2023/10/12 00:16:43;;;;;;;12.75;4.13;;;22.60;45.50;;;;;;5042386;28;20049;-48
2023/10/12 00:19:12;;;;;;;14.35;4.18;;;22.60;45.30;;;;;;5041832;28;20060;-50
2023/10/12 00:21:43;;;;;;;12.73;3.90;;;22.60;45.30;;;;;;5041209;28;20059;-46
2023/10/12 00:24:11;;;;;;;11.48;3.83;;;22.60;45.50;;;;;;5042471;28;20053;-46
2023/10/12 00:26:41;;;;;;;10.75;4.25;;;22.60;45.30;;;;;;5041929;28;20064;-47
2023/10/12 00:29:09;;;;;;;14.40;4.03;;;22.60;45.30;;;;;;5042739;28;20409;-48
2023/10/12 00:31:40;;;;;;;10.05;4.05;;;22.60;45.30;;;;;;5041876;28;20417;-43
2023/10/12 00:34:08;;;;;;;9.18;3.40;;;22.60;45.40;;;;;;5042260;28;20053;-46
2023/10/12 00:36:37;;;;;;;12.10;4.03;;;22.60;45.30;;;;;;5042200;28;20060;-49
2023/10/12 00:39:09;;;;;;;13.23;4.72;;;22.60;45.50;;;;;;5042506;28;20415;-45
2023/10/12 00:41:37;;;;;;;13.32;4.43;;;22.60;45.30;;;;;;5042135;28;20068;-48
2023/10/12 00:44:10;;;;;;;12.85;4.30;;;22.70;45.30;;;;;;5042312;28;20489;-44
2023/10/12 00:49:27;;;;;;;15.10;4.10;;;22.60;45.20;;;;;;5025365;28;20057;-48
2023/10/12 00:52:07;;;;;;;12.23;4.22;;;22.60;45.10;;;;;;5041260;28;20048;-47
2023/10/12 00:54:48;;;;;;;14.68;4.22;;;22.60;45.10;;;;;;5042012;28;20386;-48
2023/10/12 00:57:16;;;;;;;11.85;4.05;;;22.60;45.20;;;;;;5041147;28;20061;-45
2023/10/12 00:59:46;;;;;;;16.65;3.72;;;22.60;45.20;;;;;;5041713;28;20068;-49
2023/10/12 01:02:17;;;;;;;11.85;4.53;;;22.60;45.20;;;;;;5040437;28;20044;-51
2023/10/12 01:04:48;;;;;;;13.95;4.22;;;22.60;45.00;;;;;;5041141;28;20547;-47
2023/10/12 01:07:25;;;;;;;9.55;4.28;;;22.50;45.10;;;;;;5041601;28;20053;-49
2023/10/12 01:10:07;;;;;;;13.60;4.50;;;22.50;45.10;;;;;;5041191;28;20480;-46
2023/10/12 01:12:34;;;;;;;9.70;3.83;;;22.50;45.10;;;;;;5041213;28;20053;-47
2023/10/12 01:15:08;;;;;;;10.05;3.45;;;22.50;45.30;;;;;;5042858;28;20481;-43
2023/10/12 01:17:36;;;;;;;13.75;4.35;;;22.50;45.30;;;;;;5041168;28;20061;-40
2023/10/12 01:20:11;;;;;;;13.10;4.07;;;22.50;45.20;;;;;;5040681;28;20049;-40
2023/10/12 01:22:41;;;;;;;10.07;4.03;;;22.50;45.40;;;;;;5041761;28;20049;-49
2023/10/12 01:25:19;;;;;;;10.82;3.95;;;22.50;45.50;;;;;;5042315;28;20057;-40
2023/10/12 01:27:47;;;;;;;10.95;3.97;;;22.50;45.40;;;;;;5042001;28;20061;-41
2023/10/12 01:30:18;;;;;;;11.98;3.63;;;22.40;45.40;;;;;;5042661;28;20513;-41
2023/10/12 01:32:53;;;;;;;11.45;3.97;;;22.50;45.60;;;;;;5044298;28;20053;-41
2023/10/12 01:35:26;;;;;;;14.30;4.68;;;22.50;45.50;;;;;;5045046;28;20075;-41
2023/10/12 01:38:01;;;;;;;10.07;3.70;;;22.40;45.30;;;;;;5044738;28;20053;-40
2023/10/12 01:40:41;;;;;;;12.27;4.32;;;22.40;45.30;;;;;;5045299;28;20053;-41
2023/10/12 01:43:12;;;;;;;12.43;4.20;;;22.40;45.50;;;;;;5045329;28;20489;-40
2023/10/12 01:45:43;;;;;;;8.50;3.92;;;22.40;45.50;;;;;;5044537;28;20053;-43
2023/10/12 01:48:15;;;;;;;9.68;3.83;;;22.30;45.50;;;;;;5044875;28;20059;-43
2023/10/12 01:50:43;;;;;;;10.57;4.28;;;22.30;45.60;;;;;;5044811;28;20416;-43
2023/10/12 01:53:26;;;;;;;12.60;4.22;;;22.30;45.40;;;;;;5043965;28;20053;-41
2023/10/12 01:55:54;;;;;;;13.55;3.90;;;22.30;45.50;;;;;;5044568;28;20397;-40
2023/10/12 01:58:27;;;;;;;19.48;4.03;;;22.30;45.60;;;;;;5045192;28;20071;-39
2023/10/12 02:00:54;;;;;;;6.35;3.53;;;22.30;45.70;;;;;;5043980;28;20053;-40
2023/10/12 02:03:31;;;;;;;13.55;4.13;;;22.30;45.80;;;;;;5043594;28;20066;-40
2023/10/12 02:06:04;;;;;;;11.35;4.32;;;22.30;45.60;;;;;;5044541;28;20052;-43
2023/10/12 02:08:39;;;;;;;17.87;4.67;;;22.20;45.50;;;;;;5044692;28;20064;-40
2023/10/12 02:11:11;;;;;;;11.98;4.13;;;22.20;45.40;;;;;;5044823;28;20061;-45
2023/10/12 02:13:41;;;;;;;14.68;4.75;;;22.20;45.40;;;;;;5044385;28;20057;-41
2023/10/12 02:16:12;;;;;;;10.65;3.95;;;22.20;45.30;;;;;;5044005;28;20409;-43
2023/10/12 02:18:39;;;;;;;8.95;3.80;;;22.20;45.40;;;;;;5043911;28;20057;-45
2023/10/12 02:21:12;;;;;;;15.35;4.15;;;22.20;45.40;;;;;;5044291;28;20049;-44
2023/10/12 02:23:55;;;;;;;15.63;4.13;;;22.20;45.20;;;;;;5043568;28;20053;-42
2023/10/12 02:26:33;;;;;;;16.48;4.25;;;22.20;45.50;;;;;;5043377;28;20056;-47
2023/10/12 02:29:11;;;;;;;16.13;3.70;;;22.20;45.80;;;;;;5040610;28;20065;-47
2023/10/12 02:31:45;;;;;;;17.38;4.63;;;22.10;45.70;;;;;;5044387;28;20065;-48
2023/10/12 02:34:17;;;;;;;17.63;4.32;;;22.10;45.70;;;;;;5043485;28;20049;-48
2023/10/12 02:36:56;;;;;;;12.70;4.47;;;22.00;45.70;;;;;;5043119;28;20052;-52
2023/10/12 02:39:26;;;;;;;14.23;4.45;;;22.00;45.30;;;;;;5043740;28;20068;-48
2023/10/12 02:42:10;;;;;;;12.35;3.80;;;22.00;45.90;;;;;;5043081;28;20057;-46
2023/10/12 02:44:42;;;;;;;13.43;4.07;;;21.90;45.90;;;;;;5044400;28;20068;-47
2023/10/12 02:47:12;;;;;;;9.07;3.63;;;21.80;46.00;;;;;;5043273;28;20671;-47
2023/10/12 02:49:40;;;;;;;11.25;4.07;;;21.80;46.50;;;;;;5044197;28;20057;-48
2023/10/12 02:52:08;;;;;;;7.65;3.58;;;21.70;46.50;;;;;;5042849;28;20064;-44
2023/10/12 02:54:49;;;;;;;7.40;3.47;;;21.60;46.60;;;;;;5044035;28;20049;-45
2023/10/12 02:57:18;;;;;;;7.80;3.30;;;21.60;46.50;;;;;;5043950;28;20426;-44
2023/10/12 02:59:49;;;;;;;10.88;4.07;;;21.50;46.50;;;;;;5043512;28;20057;-44
2023/10/12 03:02:22;;;;;;;11.45;3.85;;;21.50;46.80;;;;;;5042968;28;20136;-48
2023/10/12 03:04:49;;;;;;;12.45;4.07;;;21.40;47.00;;;;;;5043587;28;20060;-48
2023/10/12 03:07:22;;;;;;;9.80;3.92;;;21.30;47.20;;;;;;5042562;28;20568;-45
2023/10/12 03:09:55;;;;;;;14.52;4.13;;;21.30;47.30;;;;;;5043126;28;20072;-48
2023/10/12 03:12:24;;;;;;;9.38;4.22;;;21.20;47.70;;;;;;5043991;28;20053;-43
2023/10/12 03:14:52;;;;;;;12.90;4.53;;;21.20;47.90;;;;;;5042715;28;20053;-45
2023/10/12 03:17:19;;;;;;;12.43;4.15;;;21.10;48.10;;;;;;5042563;28;20057;-46
2023/10/12 03:19:56;;;;;;;14.68;4.18;;;21.10;48.20;;;;;;5043196;28;20072;-47
2023/10/12 03:22:31;;;;;;;10.30;4.20;;;21.00;48.50;;;;;;5042224;28;20056;-45
2023/10/12 03:25:19;;;;;;;8.25;4.10;;;20.90;48.50;;;;;;5043664;28;20052;-47
2023/10/12 03:27:50;;;;;;;8.70;4.13;;;20.90;48.80;;;;;;5043499;28;20412;-47
2023/10/12 03:30:18;;;;;;;8.50;4.45;;;20.90;48.90;;;;;;5042575;28;20049;-47
2023/10/12 03:32:45;;;;;;;11.90;4.30;;;20.80;49.10;;;;;;5042429;28;20060;-47
2023/10/12 03:35:22;;;;;;;15.15;4.78;;;20.80;49.10;;;;;;5042460;28;20045;-44
2023/10/12 03:37:53;;;;;;;15.77;5.50;;;20.80;49.30;;;;;;5042535;28;20056;-42
2023/10/12 03:43:11;;;;;;;11.55;4.70;;;20.70;50.20;;;;;;5041313;28;20502;-44
2023/10/12 03:45:49;;;;;;;14.98;4.70;;;20.70;50.50;;;;;;5043316;28;20051;-41
2023/10/12 03:48:33;;;;;;;14.90;4.88;;;20.60;50.80;;;;;;5042202;28;20049;-44
2023/10/12 03:51:12;;;;;;;13.27;5.60;;;20.60;51.70;;;;;;5041693;28;20072;-44
2023/10/12 03:53:45;;;;;;;11.68;4.72;;;20.60;51.30;;;;;;5041023;28;20056;-46
2023/10/12 03:56:16;;;;;;;10.70;4.73;;;20.50;51.50;;;;;;5042873;28;20516;-41
2023/10/12 03:58:47;;;;;;;13.90;5.68;;;20.50;51.50;;;;;;5043223;28;20413;-43
2023/10/12 04:01:23;;;;;;;16.50;5.20;;;20.50;51.70;;;;;;5041216;28;20075;-44
2023/10/12 04:04:08;;;;;;;15.75;5.68;;;20.50;51.70;;;;;;5042283;28;20059;-42
2023/10/12 04:07:04;;;;;;;12.27;5.05;;;20.50;52.20;;;;;;5042169;28;20063;-42
2023/10/12 04:09:42;;;;;;;17.35;5.53;;;20.40;51.80;;;;;;5042176;28;20056;-43
2023/10/12 04:12:35;;;;;;;12.23;5.22;;;20.40;52.20;;;;;;5041661;28;20055;-44
2023/10/12 04:15:06;;;;;;;16.52;5.50;;;20.40;52.60;;;;;;5041834;28;20433;-42
2023/10/12 04:17:47;;;;;;;7.32;4.80;;;20.40;52.80;;;;;;5039808;28;20049;-43
2023/10/12 04:20:21;;;;;;;9.32;4.50;;;20.40;52.80;;;;;;5041580;28;20060;-43
2023/10/12 04:25:46;;;;;;;12.18;4.90;;;20.30;52.80;;;;;;5041812;28;20044;-42
2023/10/12 04:28:22;;;;;;;20.15;6.93;;;20.30;53.10;;;;;;5041663;28;20485;-43
2023/10/12 04:33:51;;;;;;;18.20;6.38;;;20.30;53.50;;;;;;5033325;28;20049;-41
2023/10/12 04:36:33;;;;;;;10.82;5.18;;;20.30;53.60;;;;;;5040946;28;20587;-44
2023/10/12 04:39:15;;;;;;;14.00;4.95;;;20.20;53.50;;;;;;5041752;28;20056;-43
2023/10/12 04:41:53;;;;;;;14.75;5.72;;;20.20;53.80;;;;;;5041898;28;20057;-43
2023/10/12 04:44:39;;;;;;;14.50;5.22;;;20.10;54.00;;;;;;5041330;28;20405;-43
2023/10/12 04:47:10;;;;;;;11.88;4.90;;;20.10;54.10;;;;;;5041268;28;20055;-45
2023/10/12 04:49:57;;;;;;;14.88;5.53;;;20.00;54.00;;;;;;5040404;28;20064;-46
2023/10/12 04:52:36;;;;;;;16.13;5.35;;;19.90;54.00;;;;;;5039491;28;20048;-49
2023/10/12 04:55:07;;;;;;;14.23;5.43;;;19.90;53.90;;;;;;5022152;28;20064;-49
2023/10/12 04:57:38;;;;;;;12.57;5.60;;;19.90;54.00;;;;;;5039841;28;20048;-46
2023/10/12 05:00:24;;;;;;;24.25;10.90;;;19.90;54.00;;;;;;5039886;28;20489;-46
2023/10/12 05:02:58;;;;;;;18.55;6.93;;;19.80;54.10;;;;;;5040119;28;20103;-47
2023/10/12 05:08:10;;;;;;;12.75;6.22;;;19.80;54.40;;;;;;5026819;28;20068;-47
2023/10/12 05:10:48;;;;;;;14.80;5.53;;;19.80;54.60;;;;;;5021584;28;20056;-48
2023/10/12 05:13:22;;;;;;;14.20;5.55;;;19.80;54.70;;;;;;5021183;28;20050;-44
2023/10/12 05:16:04;;;;;;;14.48;5.90;;;19.70;54.60;;;;;;5020655;28;20057;-45
2023/10/12 05:18:33;;;;;;;9.80;5.10;;;19.70;54.60;;;;;;5020187;28;20520;-48
2023/10/12 05:21:04;;;;;;;12.02;5.50;;;19.70;54.70;;;;;;5019906;28;20436;-48
2023/10/12 05:23:31;;;;;;;14.63;5.30;;;19.60;54.80;;;;;;5020546;28;20060;-47
2023/10/12 05:26:11;;;;;;;14.07;5.85;;;19.60;55.10;;;;;;5020198;28;20045;-49
2023/10/12 05:28:47;;;;;;;19.15;6.10;;;19.60;55.20;;;;;;5020586;28;20062;-49
2023/10/12 05:31:20;;;;;;;15.38;6.22;;;19.60;55.30;;;;;;5019894;28;20060;-44
2023/10/12 05:36:43;;;;;;;10.43;4.72;;;19.60;55.50;;;;;;5019226;28;20401;-48
2023/10/12 05:39:14;;;;;;;9.80;5.60;;;19.60;55.50;;;;;;5019949;28;20049;-49
2023/10/12 05:41:41;;;;;;;10.73;5.50;;;19.60;55.60;;;;;;5018536;28;20060;-47
2023/10/12 05:44:13;;;;;;;11.88;5.78;;;19.60;55.90;;;;;;5020376;28;20493;-44
2023/10/12 05:46:45;;;;;;;13.77;6.40;;;19.60;56.00;;;;;;5021342;28;20057;-48
2023/10/12 05:49:16;;;;;;;15.52;5.65;;;19.60;56.10;;;;;;5019999;28;20060;-44
2023/10/12 05:51:44;;;;;;;12.93;5.82;;;19.60;56.00;;;;;;5019807;28;20057;-47
2023/10/12 05:54:19;;;;;;;13.98;5.90;;;19.60;56.10;;;;;;5020670;28;20053;-47
2023/10/12 05:56:47;;;;;;;11.63;5.70;;;19.50;56.10;;;;;;5020684;28;22518;-43
2023/10/12 05:59:14;;;;;;;10.80;5.72;;;19.50;56.20;;;;;;5020096;28;20413;-45
2023/10/12 06:01:45;;;;;;;15.93;6.15;;;19.50;56.20;;;;;;5020082;28;20065;-43
2023/10/12 06:04:14;;;;;;;10.30;5.63;;;19.50;56.30;;;;;;5020625;28;20406;-43
2023/10/12 06:06:43;;;;;;;17.42;6.68;;;19.50;56.40;;;;;;5029712;28;20052;-46
2023/10/12 06:09:13;;;;;;;12.98;5.55;;;19.50;56.40;;;;;;5040441;28;20053;-44
2023/10/12 06:11:46;;;;;;;11.43;5.70;;;19.50;56.50;;;;;;5040348;28;20052;-45
2023/10/12 06:14:15;;;;;;;10.48;5.57;;;19.50;56.60;;;;;;5040863;28;20416;-44
2023/10/12 06:16:45;;;;;;;18.02;6.00;;;19.50;56.60;;;;;;5038604;28;20055;-43
2023/10/12 06:19:21;;;;;;;17.00;6.57;;;19.50;56.70;;;;;;5043281;28;20053;-42
2023/10/12 06:21:51;;;;;;;10.68;5.57;;;19.50;56.80;;;;;;5043310;28;20064;-41
2023/10/12 06:24:33;;;;;;;11.55;5.82;;;19.50;56.80;;;;;;5044029;28;20048;-43
2023/10/12 06:27:11;;;;;;;12.75;6.03;;;19.50;56.80;;;;;;5043072;28;20064;-42
2023/10/12 06:29:38;;;;;;;13.93;5.47;;;19.50;56.90;;;;;;5044064;28;20124;-44
2023/10/12 06:32:16;;;;;;;91.43;46.28;;;19.50;56.90;;;;;;5044148;28;20056;-42
2023/10/12 06:34:44;;;;;;;18.08;9.82;;;19.50;57.00;;;;;;5043274;28;20049;-43
2023/10/12 06:37:34;;;;;;;19.60;6.75;;;19.50;57.10;;;;;;5044475;28;20056;-42
2023/10/12 06:40:21;;;;;;;12.77;6.40;;;19.50;57.10;;;;;;5043862;28;20061;-42
2023/10/12 06:43:57;;;;;;;17.33;5.97;;;19.50;57.10;;;;;;5043255;28;20075;-46
2023/10/12 06:45:47;;;;;;;9.82;5.32;;;19.50;57.10;;;;;;5043706;28;20063;-45
2023/10/12 06:48:23;;;;;;;14.30;5.70;;;19.50;57.10;;;;;;5043103;28;20045;-42
2023/10/12 06:51:01;;;;;;;15.80;5.88;;;19.50;57.30;;;;;;5042747;28;20064;-42
2023/10/12 06:53:33;;;;;;;15.13;5.55;;;19.50;57.30;;;;;;5043993;28;20060;-43
2023/10/12 06:56:15;;;;;;;12.85;5.20;;;19.50;57.30;;;;;;5042927;28;20053;-42
2023/10/12 06:58:43;;;;;;;12.68;5.60;;;19.50;57.50;;;;;;5042612;28;20053;-44
2023/10/12 07:01:26;;;;;;;15.10;5.30;;;19.50;57.70;;;;;;5043174;28;20064;-45
2023/10/12 07:03:54;;;;;;;17.88;6.20;;;19.40;57.70;;;;;;5042478;28;20048;-43
2023/10/12 07:06:21;;;;;;;10.32;5.55;;;19.40;58.00;;;;;;5043052;28;20044;-46
2023/10/12 07:08:51;;;;;;;16.05;5.97;;;19.40;58.00;;;;;;5043626;28;20522;-44
2023/10/12 07:11:18;;;;;;;16.70;6.47;;;19.30;58.10;;;;;;5043964;28;20049;-47
2023/10/12 07:13:47;;;;;;;13.63;5.97;;;19.30;58.30;;;;;;5043505;28;20355;-42
2023/10/12 07:16:16;;;;;;;11.88;5.97;;;19.30;58.40;;;;;;5042109;28;20049;-45
2023/10/12 07:18:43;;;;;;;18.80;5.93;;;19.30;58.50;;;;;;5042724;28;20049;-44
2023/10/12 07:21:21;;;;;;;16.05;6.30;;;19.30;58.60;;;;;;5042257;28;20057;-45
2023/10/12 07:23:52;;;;;;;15.85;5.47;;;19.30;58.60;;;;;;5042755;28;20053;-42
2023/10/12 07:26:19;;;;;;;9.80;5.07;;;19.30;58.70;;;;;;5044078;28;20053;-46
2023/10/12 07:28:49;;;;;;;15.80;6.25;;;19.30;58.70;;;;;;5042442;28;20552;-46
2023/10/12 07:31:37;;;;;;;13.27;5.38;;;19.30;58.80;;;;;;5042047;28;20063;-45
2023/10/12 07:34:05;;;;;;;12.27;5.28;;;19.30;58.90;;;;;;5042511;28;20056;-44
2023/10/12 07:36:45;;;;;;;19.75;6.85;;;19.30;58.90;;;;;;5042069;28;20049;-42
2023/10/12 07:39:19;;;;;;;22.67;5.70;;;19.30;59.00;;;;;;5043199;28;20052;-45
2023/10/12 07:41:55;;;;;;;12.03;5.20;;;19.30;59.10;;;;;;5041254;28;20053;-44
2023/10/12 07:44:24;;;;;;;17.83;6.78;;;19.30;59.10;;;;;;5041749;28;20056;-48
2023/10/12 07:46:51;;;;;;;14.32;5.60;;;19.30;59.20;;;;;;5040419;28;20056;-43
2023/10/12 07:49:37;;;;;;;16.05;7.03;;;19.30;59.20;;;;;;5042433;28;20485;-44
2023/10/12 07:52:22;;;;;;;19.33;6.32;;;19.30;59.10;;;;;;5041440;28;20057;-45
2023/10/12 07:54:57;;;;;;;16.08;6.35;;;19.30;59.20;;;;;;5043092;28;20539;-40
2023/10/12 07:57:29;;;;;;;19.05;5.90;;;19.30;59.20;;;;;;5041455;28;20060;-43
2023/10/12 08:00:29;;;;;;;17.77;5.65;;;19.30;59.20;;;;;;5041973;28;20067;-40
2023/10/12 08:05:56;;;;;;;15.27;5.32;;;19.30;59.20;;;;;;4982287;28;20063;-46
2023/10/12 08:08:33;;;;;;;13.85;5.68;;;19.30;59.20;;;;;;5031996;28;20060;-44
2023/10/12 08:11:18;;;;;;;16.67;6.18;;;19.30;59.30;;;;;;5042011;28;20060;-44
2023/10/12 08:13:49;;;;;;;17.00;6.03;;;19.30;59.40;;;;;;5041255;28;20056;-42
2023/10/12 08:16:25;;;;;;;15.20;6.05;;;19.30;59.40;;;;;;5041449;28;20053;-43
2023/10/12 08:21:40;;;;;;;12.70;5.88;;;19.30;59.50;;;;;;5048256;28;20076;-45
2023/10/12 08:24:22;;;;;;;14.07;6.00;;;19.30;59.40;;;;;;5042059;28;20053;-42
2023/10/12 08:26:57;;;;;;;11.57;6.18;;;19.30;59.50;;;;;;5042397;28;20489;-44
2023/10/12 08:32:15;;;;;;;15.32;5.80;;;19.30;59.50;;;;;;5007046;28;20937;-47
2023/10/12 08:34:42;;;;;;;12.32;5.65;;;19.30;59.60;;;;;;5041041;28;20072;-45
2023/10/12 08:37:20;;;;;;;16.80;6.13;;;19.30;59.60;;;;;;5041707;28;20068;-45
2023/10/12 08:39:51;;;;;;;15.43;6.53;;;19.30;59.70;;;;;;5041889;28;20406;-42
2023/10/12 08:42:55;;;;;;;13.23;6.18;;;19.30;59.80;;;;;;5041622;28;21087;-43
2023/10/12 08:45:24;;;;;;;13.95;6.72;;;19.30;59.70;;;;;;5041619;28;20070;-43
2023/10/12 08:47:54;;;;;;;14.60;6.25;;;19.30;59.70;;;;;;5041303;28;20060;-43
2023/10/12 08:53:09;;;;;;;15.68;6.70;;;19.30;59.70;;;;;;5039230;28;20519;-43
2023/10/12 08:55:38;;;;;;;14.07;6.10;;;19.40;59.80;;;;;;5042263;28;20098;-42
2023/10/12 08:58:18;;;;;;;13.48;6.43;;;19.40;59.70;;;;;;5041368;28;20044;-43
2023/10/12 09:01:07;;;;;;;20.70;7.28;;;19.40;59.80;;;;;;5040868;28;20408;-43
2023/10/12 09:03:38;;;;;;;12.70;6.55;;;19.40;59.70;;;;;;5039437;28;20065;-46
2023/10/12 09:06:19;;;;;;;19.15;6.22;;;19.40;59.70;;;;;;5040038;28;20053;-45
2023/10/12 09:08:47;;;;;;;16.70;5.95;;;19.40;59.80;;;;;;5040660;28;20053;-42
2023/10/12 09:11:16;;;;;;;12.18;5.88;;;19.50;59.90;;;;;;5033458;28;20053;-44
2023/10/12 09:13:47;;;;;;;18.73;6.55;;;19.50;60.10;;;;;;5034668;28;20068;-42
2023/10/12 09:16:15;;;;;;;13.05;6.18;;;19.50;60.10;;;;;;5038289;28;20056;-42
2023/10/12 09:18:46;;;;;;;21.55;6.30;;;19.60;60.30;;;;;;5038474;28;20045;-42
2023/10/12 09:21:23;;;;;;;16.20;6.75;;;19.60;60.30;;;;;;5036357;28;20056;-41
2023/10/12 09:23:52;;;;;;;22.73;6.57;;;19.60;60.30;;;;;;5039643;28;20408;-41
2023/10/12 09:26:31;;;;;;;15.88;6.53;;;19.70;60.30;;;;;;5038110;28;20055;-41
2023/10/12 09:29:08;;;;;;;12.45;6.18;;;19.70;60.20;;;;;;5038996;28;20049;-50
2023/10/12 09:34:42;;;;;;;19.73;6.63;;;19.80;60.00;;;;;;5038603;28;20060;-48
2023/10/12 09:37:16;;;;;;;13.68;5.78;;;19.80;59.90;;;;;;5036642;28;20060;-45
2023/10/12 09:39:45;;;;;;;11.68;6.50;;;19.90;60.00;;;;;;5039641;28;20049;-47
2023/10/12 09:42:31;;;;;;;12.00;6.40;;;19.90;59.90;;;;;;5039028;28;20052;-47
2023/10/12 09:45:10;;;;;;;12.18;6.50;;;19.90;60.00;;;;;;5037635;28;20057;-49
2023/10/12 09:47:50;;;;;;;19.27;6.82;;;20.00;60.00;;;;;;5037852;28;20512;-50
2023/10/12 09:50:27;;;;;;;15.90;6.45;;;20.00;59.80;;;;;;5036759;28;20060;-47
2023/10/12 09:52:58;;;;;;;10.90;5.88;;;20.00;59.70;;;;;;5036393;28;20063;-51
2023/10/12 09:55:32;;;;;;;14.93;6.22;;;20.00;60.20;;;;;;5040953;28;20425;-47
2023/10/12 09:58:13;;;;;;;;;;;20.00;60.20;;;;;;5041624;28;20049;-48
2023/10/12 10:01:01;;;;;;;14.00;6.35;;;20.10;59.50;;;;;;5024628;28;20391;-49
2023/10/12 10:03:36;;;;;;;18.85;6.80;;;20.20;59.30;;;;;;5041558;28;20053;-48
2023/10/12 10:06:19;;;;;;;10.98;6.63;;;20.20;59.20;;;;;;5042590;28;20057;-48
2023/10/12 10:09:09;;;;;;;13.10;6.70;;;20.20;59.40;;;;;;5043989;28;20056;-48
2023/10/12 10:11:38;;;;;;;12.63;6.00;;;20.20;59.30;;;;;;5042442;28;20408;-50
2023/10/12 10:14:09;;;;;;;12.32;6.00;;;20.20;59.50;;;;;;5043088;28;20141;-48
2023/10/12 10:16:46;;;;;;;11.35;6.78;;;20.30;59.60;;;;;;5041929;28;20045;-47
2023/10/12 10:19:16;;;;;;;14.20;6.93;;;20.20;59.50;;;;;;5040002;28;20053;-50
2023/10/12 10:21:50;;;;;;;12.88;6.75;;;20.30;59.50;;;;;;5040719;28;20049;-50
2023/10/12 10:24:20;;;;;;;13.23;6.68;;;20.30;59.40;;;;;;5038190;28;20041;-47
2023/10/12 10:26:57;;;;;;;13.20;6.47;;;20.30;59.50;;;;;;5042545;28;20500;-51
2023/10/12 10:29:42;;;;;;;12.40;6.47;;;20.40;59.70;;;;;;5042463;28;20053;-50
2023/10/12 10:32:14;;;;;;;19.00;7.03;;;20.40;59.70;;;;;;5042217;28;20144;-45
2023/10/12 10:34:43;;;;;;;15.20;7.18;;;20.40;59.50;;;;;;5039580;28;20057;-51
2023/10/12 10:37:15;;;;;;;13.15;6.63;;;20.50;59.50;;;;;;5041497;28;20501;-50
2023/10/12 10:39:43;;;;;;;13.80;6.65;;;20.50;59.40;;;;;;5041898;28;20049;-48
2023/10/12 10:42:10;;;;;;;18.25;7.38;;;20.50;59.40;;;;;;5042096;28;20437;-49
2023/10/12 10:44:41;;;;;;;20.20;7.45;;;20.50;59.30;;;;;;5039048;28;20053;-50
2023/10/12 10:47:15;;;;;;;13.02;6.57;;;20.60;59.30;;;;;;5040841;28;20041;-49
2023/10/12 10:49:45;;;;;;;17.08;6.53;;;20.60;59.30;;;;;;5043138;28;20436;-49
2023/10/12 10:52:20;;;;;;;12.82;7.05;;;20.60;59.40;;;;;;5039646;28;20843;-50
2023/10/12 10:55:00;;;;;;;12.95;6.25;;;20.70;59.50;;;;;;5040341;28;20064;-47
2023/10/12 10:57:31;;;;;;;13.10;6.10;;;20.70;59.50;;;;;;5040874;28;20052;-49
2023/10/12 11:00:00;;;;;;;16.92;5.53;;;20.70;59.40;;;;;;5038645;28;20063;-51
2023/10/12 11:02:29;;;;;;;13.48;6.68;;;20.70;59.30;;;;;;5038333;28;20045;-51
2023/10/12 11:05:01;;;;;;;14.77;6.60;;;20.70;59.20;;;;;;5038877;28;20057;-52
2023/10/12 11:07:28;;;;;;;16.05;5.90;;;20.80;59.20;;;;;;5040324;28;20068;-49
2023/10/12 11:10:06;;;;;;;13.95;6.13;;;20.80;59.60;;;;;;5039650;28;20068;-48
2023/10/12 11:12:36;;;;;;;16.95;5.50;;;20.80;59.10;;;;;;5039692;28;20041;-48
2023/10/12 11:15:08;;;;;;;14.77;5.68;;;20.80;58.90;;;;;;5040122;28;20052;-49
2023/10/12 11:17:41;;;;;;;14.95;6.10;;;20.90;58.90;;;;;;5038979;28;20061;-48
2023/10/12 11:20:35;;;;;;;11.90;6.18;;;20.90;59.00;;;;;;5037176;28;20052;-47
2023/10/12 11:23:07;;;;;;;15.15;5.50;;;20.90;58.90;;;;;;5037647;28;20056;-50
2023/10/12 11:25:39;;;;;;;11.73;5.25;;;20.90;58.70;;;;;;5037133;28;20049;-49
2023/10/12 11:28:33;;;;;;;12.68;5.93;;;21.00;58.70;;;;;;5039603;28;20045;-47
2023/10/12 11:31:20;;;;;;;12.00;5.10;;;21.00;58.90;;;;;;5024511;28;20049;-47
2023/10/12 11:33:51;;;;;;;12.88;5.55;;;21.00;58.60;;;;;;5038953;28;20882;-47
2023/10/12 11:36:22;;;;;;;13.88;5.78;;;21.00;58.50;;;;;;5041148;28;20055;-49
2023/10/12 11:38:58;;;;;;;11.43;5.00;;;21.10;58.70;;;;;;5040292;28;20044;-49
2023/10/12 11:41:27;;;;;;;12.93;5.72;;;21.10;58.70;;;;;;5039260;28;20072;-48
2023/10/12 11:43:57;;;;;;;15.65;5.38;;;21.10;58.60;;;;;;5040607;28;20052;-47
2023/10/12 11:46:25;;;;;;;14.07;5.40;;;21.20;58.40;;;;;;5038535;28;20053;-48
2023/10/12 11:49:05;;;;;;;12.30;5.40;;;21.20;58.40;;;;;;5039588;28;20052;-44
2023/10/12 11:51:39;;;;;;;12.95;6.00;;;21.30;58.40;;;;;;5040092;28;20057;-44
2023/10/12 11:54:07;;;;;;;;;;;21.30;58.40;;;;;;5040917;28;20400;-43
2023/10/12 11:56:43;;;;;;;11.55;5.35;;;21.40;58.40;;;;;;5038983;28;19924;-44
2023/10/12 11:59:14;;;;;;;13.82;5.47;;;21.50;58.10;;;;;;5039992;28;20059;-47
2023/10/12 12:01:41;;;;;;;18.58;5.50;;;21.50;57.80;;;;;;5038426;28;20048;-47
2023/10/12 12:04:23;;;;;;;9.30;5.32;;;21.50;57.80;;;;;;5039146;28;20053;-48
2023/10/12 12:06:51;;;;;;;14.48;5.82;;;21.50;57.80;;;;;;5036097;28;20080;-44
2023/10/12 12:09:18;;;;;;;13.02;5.22;;;21.60;57.70;;;;;;5040051;28;20493;-42
2023/10/12 12:11:47;;;;;;;12.52;5.22;;;21.60;57.10;;;;;;5040883;28;20056;-42
2023/10/12 12:14:14;;;;;;;15.77;5.78;;;21.60;56.80;;;;;;5039106;28;20052;-43
2023/10/12 12:16:42;;;;;;;13.27;5.22;;;21.60;56.90;;;;;;5040071;28;20508;-43
2023/10/12 12:19:17;;;;;;;13.68;5.07;;;21.60;56.80;;;;;;5039752;28;20048;-46
2023/10/12 12:21:45;;;;;;;12.65;5.28;;;21.60;56.80;;;;;;5037255;28;20056;-42
2023/10/12 12:24:21;;;;;;;10.95;4.70;;;21.70;56.70;;;;;;5040202;28;20053;-44
2023/10/12 12:26:49;;;;;;;18.35;5.32;;;21.70;56.60;;;;;;5040574;28;20053;-47
2023/10/12 12:29:21;;;;;;;12.82;4.85;;;21.70;56.30;;;;;;5039942;28;20433;-42
2023/10/12 12:31:49;;;;;;;14.02;4.85;;;21.70;56.20;;;;;;5038332;28;20386;-44
2023/10/12 12:34:38;;;;;;;11.00;4.95;;;21.70;56.00;;;;;;5039842;28;20056;-41
2023/10/12 12:37:06;;;;;;;11.05;5.45;;;21.70;55.80;;;;;;5041191;28;20063;-40
2023/10/12 12:39:34;;;;;;;10.65;4.72;;;21.80;55.80;;;;;;5041456;28;20060;-42
2023/10/12 12:42:02;;;;;;;11.23;4.78;;;21.80;55.70;;;;;;5042025;28;20413;-43
2023/10/12 12:44:30;;;;;;;12.05;4.32;;;21.80;55.80;;;;;;5039711;28;20068;-44
2023/10/12 12:46:59;;;;;;;14.15;4.65;;;21.80;55.80;;;;;;5039640;28;20061;-45
2023/10/12 12:49:29;;;;;;;16.88;5.28;;;21.90;55.80;;;;;;5038474;28;20068;-43
2023/10/12 12:51:58;;;;;;;15.90;5.60;;;21.90;55.70;;;;;;5039650;28;20049;-44
2023/10/12 12:54:26;;;;;;;11.20;4.80;;;21.90;55.70;;;;;;5039667;28;20425;-46
2023/10/12 12:56:53;;;;;;;8.63;4.63;;;21.90;55.70;;;;;;5039996;28;20127;-45
2023/10/12 12:59:23;;;;;;;12.68;5.10;;;21.90;55.70;;;;;;5038436;28;20056;-51
2023/10/12 13:01:51;;;;;;;14.73;5.35;;;21.90;55.60;;;;;;5036624;28;20421;-51
2023/10/12 13:04:19;;;;;;;10.25;4.45;;;21.90;55.50;;;;;;5038179;28;20464;-50
2023/10/12 13:06:48;;;;;;;12.18;5.55;;;21.90;55.50;;;;;;5037947;28;20053;-48
2023/10/12 13:09:28;;;;;;;12.13;5.03;;;21.90;55.60;;;;;;5037148;28;20057;-51
2023/10/12 13:11:56;;;;;;;13.50;5.20;;;21.90;55.60;;;;;;5037434;28;20064;-48
2023/10/12 13:14:23;;;;;;;15.50;5.55;;;21.80;55.70;;;;;;5036685;28;20056;-47
2023/10/12 13:16:51;;;;;;;10.13;5.38;;;21.80;55.80;;;;;;5034957;28;20064;-49
2023/10/12 13:19:19;;;;;;;17.25;5.53;;;21.80;56.00;;;;;;5035718;28;20049;-46
2023/10/12 13:21:47;;;;;;;14.20;6.20;;;21.70;56.10;;;;;;5038678;28;20060;-46
2023/10/12 13:24:15;;;;;;;16.88;5.50;;;21.70;56.30;;;;;;5037980;28;20057;-49
2023/10/12 13:26:44;;;;;;;13.05;5.72;;;21.60;56.40;;;;;;5039156;28;20060;-50
2023/10/12 13:29:13;;;;;;;18.70;6.00;;;21.60;56.60;;;;;;5041272;28;20515;-48
2023/10/12 13:31:40;;;;;;;11.85;5.70;;;21.50;56.80;;;;;;5036760;28;20505;-48
2023/10/12 13:34:10;;;;;;;13.13;5.75;;;21.50;56.90;;;;;;5040417;28;20405;-49
2023/10/12 13:36:39;;;;;;;16.15;5.72;;;21.40;57.00;;;;;;5041721;28;20049;-49
2023/10/12 13:39:10;;;;;;;10.07;5.15;;;21.40;57.10;;;;;;5041991;28;20049;-50
2023/10/12 13:41:37;;;;;;;17.38;6.20;;;21.30;57.10;;;;;;5040845;28;20052;-48